Time;durP1;ratioP1;P1;durP2;ratioP2;P2;SDS_P1;SDS_P2;PMS_P1;PMS_P2;Temp;Humidity;BMP_temperature;BMP_pressure;BME280_temperature;BME280_humidity;BME280_pressure;Samples;Min_cycle;Max_cycle;Signal;HPM_P1;HPM_P2
2022/01/31 00:00:56;;;;;;;7.23;3.37;;;;;;;3.93;69.07;98986.78;5071265;28;20173;-83
2022/01/31 00:03:21;;;;;;;10.23;3.37;;;;;;;4.03;67.75;98974.97;5061708;28;20564;-83
2022/01/31 00:05:47;;;;;;;6.50;2.73;;;;;;;3.89;68.22;98959.84;5053142;28;20654;-83
2022/01/31 00:08:14;;;;;;;11.37;3.80;;;;;;;3.67;68.80;98936.75;5067945;28;20559;-83
2022/01/31 00:10:40;;;;;;;8.77;3.63;;;;;;;4.24;67.72;99037.16;5052620;28;20188;-83
2022/01/31 00:13:13;;;;;;;10.47;3.60;;;;;;;3.89;66.13;98930.69;5052503;28;20490;-83
2022/01/31 00:15:42;;;;;;;10.77;3.90;;;;;;;4.95;65.25;99102.59;5052063;28;20636;-83
2022/01/31 00:18:07;;;;;;;13.47;4.23;;;;;;;3.99;64.99;98920.44;5052300;28;20408;-82
2022/01/31 00:20:35;;;;;;;11.70;3.43;;;;;;;4.84;65.73;99080.16;5052594;28;20411;-84
2022/01/31 00:23:00;;;;;;;13.50;4.47;;;;;;;4.70;66.09;99081.81;5052535;28;20183;-82
2022/01/31 00:25:25;;;;;;;16.30;4.27;;;;;;;4.80;65.73;99084.13;5052007;28;20411;-82
2022/01/31 00:27:51;;;;;;;17.70;4.90;;;;;;;3.94;64.85;98941.84;5051979;28;20170;-82
2022/01/31 00:30:17;;;;;;;12.33;3.83;;;;;;;4.31;64.23;98986.69;5052103;28;20565;-82
2022/01/31 00:32:43;;;;;;;18.27;4.50;;;;;;;4.94;63.74;99074.94;5052630;28;20549;-82
2022/01/31 00:35:09;;;;;;;11.73;3.80;;;;;;;5.00;63.09;99093.69;5051982;28;20193;-82
2022/01/31 00:37:34;;;;;;;13.20;4.10;;;;;;;4.71;63.86;99020.88;5052538;28;20177;-83
2022/01/31 00:40:00;;;;;;;11.93;4.60;;;;;;;4.25;62.96;98953.72;5052020;28;20896;-83
2022/01/31 00:42:27;;;;;;;9.00;3.83;;;;;;;3.06;62.98;98731.97;5051672;28;20207;-83
2022/01/31 00:45:07;;;;;;;17.07;6.20;;;;;;;4.43;63.05;98994.91;5052173;28;20168;-83
2022/01/31 00:47:32;;;;;;;14.40;3.90;;;;;;;4.81;63.19;99072.47;5050720;28;20420;-82
2022/01/31 00:50:09;;;;;;;12.47;3.13;;;;;;;3.91;63.76;98921.63;5052040;28;20420;-82
2022/01/31 00:52:36;;;;;;;6.43;2.70;;;;;;;4.70;63.50;99074.28;5052203;28;20248;-81
2022/01/31 00:55:02;;;;;;;17.87;4.67;;;;;;;4.67;63.65;99071.59;5051637;28;20531;-83
2022/01/31 00:57:28;;;;;;;11.00;3.53;;;;;;;3.97;64.39;98968.72;5066893;28;20418;-82
2022/01/31 00:59:54;;;;;;;10.70;3.60;;;;;;;3.80;64.19;98934.25;5051174;28;20415;-82
2022/01/31 01:02:24;;;;;;;9.10;4.20;;;;;;;4.55;63.59;99050.81;5052375;28;20223;-82
2022/01/31 01:04:50;;;;;;;13.50;4.20;;;;;;;4.38;63.62;99021.34;5055301;28;20468;-82
2022/01/31 01:07:15;;;;;;;11.97;4.13;;;;;;;1.86;63.11;98631.06;5056795;28;20450;-82
2022/01/31 01:09:42;;;;;;;13.50;3.87;;;;;;;4.07;63.21;98971.00;5055689;28;20249;-83
2022/01/31 01:12:09;;;;;;;10.17;3.57;;;;;;;0.94;62.38;98411.47;5055595;28;20166;-82
2022/01/31 01:14:34;;;;;;;12.17;4.13;;;;;;;3.60;62.38;98882.09;5055655;28;20452;-82
2022/01/31 01:17:00;;;;;;;10.77;3.90;;;;;;;4.72;62.75;99043.53;5057041;28;20907;-82
2022/01/31 01:19:26;;;;;;;19.10;4.93;;;;;;;4.49;62.13;99003.69;5060994;28;20170;-82
2022/01/31 01:21:51;;;;;;;12.03;3.77;;;;;;;4.07;61.49;98936.81;5067478;28;20172;-83
2022/01/31 01:24:17;;;;;;;12.30;4.60;;;;;;;4.74;61.79;99044.50;5055911;28;20157;-82
2022/01/31 01:26:43;;;;;;;11.60;4.10;;;;;;;4.63;61.80;99045.50;5055561;28;20203;-83
2022/01/31 01:29:09;;;;;;;11.80;3.30;;;;;;;4.51;61.22;99034.72;5055979;28;20548;-82
2022/01/31 01:31:34;;;;;;;19.97;4.37;;;;;;;3.85;60.40;98921.22;5056629;28;20421;-82
2022/01/31 01:34:00;;;;;;;21.53;3.90;;;;;;;4.60;60.77;99049.44;5055704;28;20201;-82
2022/01/31 01:36:26;;;;;;;14.97;4.10;;;;;;;1.31;60.58;98525.25;5055557;28;20200;-83
2022/01/31 01:38:51;;;;;;;13.70;3.47;;;;;;;1.36;60.68;98523.91;5055385;28;20187;-83
2022/01/31 01:41:17;;;;;;;15.73;4.30;;;;;;;2.21;60.97;98674.13;5055258;28;20622;-83
2022/01/31 01:43:42;;;;;;;11.67;3.87;;;;;;;3.76;60.75;98960.75;5054968;28;20161;-82
2022/01/31 01:46:08;;;;;;;13.30;3.83;;;;;;;3.47;59.81;98895.47;5054843;28;20191;-82
2022/01/31 01:48:33;;;;;;;14.07;3.37;;;;;;;3.29;60.24;98874.31;5054588;28;20217;-82
2022/01/31 01:50:59;;;;;;;8.27;3.37;;;;;;;4.29;60.35;99066.75;5055062;28;20292;-82
2022/01/31 01:53:25;;;;;;;9.43;3.20;;;;;;;4.24;60.29;99054.69;5054884;28;20562;-82
2022/01/31 01:55:53;;;;;;;11.23;3.43;;;;;;;4.11;61.51;99056.47;5054683;28;20172;-81
2022/01/31 01:58:23;;;;;;;12.07;2.83;;;;;;;4.14;60.52;99055.78;5054765;28;20435;-83
2022/01/31 02:00:51;;;;;;;11.87;3.03;;;;;;;4.10;61.01;99063.84;5054635;28;20407;-82
2022/01/31 02:03:18;;;;;;;21.00;2.90;;;;;;;3.72;60.02;98990.47;5054694;28;20410;-82
2022/01/31 02:05:44;;;;;;;10.50;2.87;;;;;;;4.14;59.61;99059.16;5070691;28;21011;-82
2022/01/31 02:08:17;;;;;;;10.27;3.07;;;;;;;4.19;59.52;99081.97;5054305;28;20404;-82
2022/01/31 02:10:42;;;;;;;12.97;3.10;;;;;;;3.70;58.64;98990.38;5054287;28;20215;-83
2022/01/31 02:13:09;;;;;;;9.73;2.90;;;;;;;4.16;59.04;99060.09;5054558;28;20412;-83
2022/01/31 02:15:35;;;;;;;6.97;3.07;;;;;;;3.56;59.59;99007.03;5053885;28;20201;-83
2022/01/31 02:18:01;;;;;;;11.87;3.37;;;;;;;2.42;58.53;98772.03;5076077;28;20471;-83
2022/01/31 02:20:27;;;;;;;15.20;4.10;;;;;;;3.16;58.17;98896.81;5075094;28;20178;-83
2022/01/31 02:22:53;;;;;;;12.50;3.23;;;;;;;2.54;58.09;98771.19;5061397;28;20411;-83
2022/01/31 02:25:19;;;;;;;9.20;3.60;;;;;;;3.64;56.71;98947.44;5055250;28;20166;-83
2022/01/31 02:27:44;;;;;;;12.70;3.60;;;;;;;4.40;56.87;99094.97;5055138;28;20400;-83
2022/01/31 02:30:13;;;;;;;10.00;3.00;;;;;;;4.50;56.29;99067.22;5055163;28;20578;-82
2022/01/31 02:32:38;;;;;;;13.13;3.27;;;;;;;4.54;56.19;99066.63;5054358;28;20186;-83
2022/01/31 02:35:05;;;;;;;10.07;3.67;;;;;;;3.35;55.18;98849.69;5054330;28;20962;-83
2022/01/31 02:37:31;;;;;;;13.13;3.30;;;;;;;4.58;55.55;99063.53;5053919;28;20168;-82
2022/01/31 02:39:57;;;;;;;13.03;3.03;;;;;;;2.76;55.05;98746.78;5054261;28;20444;-82
2022/01/31 02:42:23;;;;;;;10.80;3.20;;;;;;;4.28;55.32;99009.03;5053653;28;20497;-83
2022/01/31 02:44:49;;;;;;;11.73;2.97;;;;;;;4.50;56.13;99068.09;5054254;28;20168;-82
2022/01/31 02:47:31;;;;;;;12.37;2.87;;;;;;;4.52;55.87;99073.19;5057753;28;20404;-81
2022/01/31 02:50:00;;;;;;;7.83;2.70;;;;;;;4.44;56.73;99071.84;5058761;28;20177;-82
2022/01/31 02:52:29;;;;;;;14.13;3.50;;;;;;;3.61;56.36;98939.75;5054178;28;20826;-81
2022/01/31 02:54:55;;;;;;;8.80;2.70;;;;;;;2.87;57.76;98840.81;5053375;28;20445;-82
2022/01/31 02:57:20;;;;;;;13.03;2.70;;;;;;;3.82;57.72;98971.09;5068849;28;20822;-82
2022/01/31 02:59:45;;;;;;;11.00;2.87;;;;;;;1.16;57.21;98512.66;5068865;28;20265;-82
2022/01/31 03:02:11;;;;;;;11.63;2.90;;;;;;;2.07;57.80;98657.41;5053117;28;20315;-82
2022/01/31 03:04:36;;;;;;;11.33;2.73;;;;;;;3.96;57.22;99007.03;5053444;28;20161;-81
2022/01/31 03:07:02;;;;;;;6.70;2.83;;;;;;;4.40;57.37;99092.47;5069427;28;20559;-82
2022/01/31 03:09:27;;;;;;;10.70;3.07;;;;;;;3.44;58.14;98932.78;5053764;28;20180;-82
2022/01/31 03:11:53;;;;;;;9.37;2.50;;;;;;;4.18;57.56;99068.56;5053321;28;20168;-82
2022/01/31 03:14:19;;;;;;;10.70;2.80;;;;;;;3.38;57.91;98900.75;5052984;28;20185;-82
2022/01/31 03:16:48;;;;;;;11.67;3.17;;;;;;;3.64;57.46;98937.44;5053354;28;20146;-82
2022/01/31 03:19:15;;;;;;;3.53;2.23;;;;;;;4.07;57.64;99021.09;5068567;28;20179;-82
2022/01/31 03:21:42;;;;;;;5.43;2.37;;;;;;;4.03;57.59;99022.56;5052927;28;20893;-82
2022/01/31 03:24:08;;;;;;;5.53;2.13;;;;;;;4.43;57.35;99075.97;5053140;28;20474;-84
2022/01/31 03:26:34;;;;;;;6.73;2.30;;;;;;;2.14;56.99;98680.34;5053086;28;20454;-82
2022/01/31 03:28:59;;;;;;;6.10;2.57;;;;;;;4.39;57.71;99070.69;5052103;28;20575;-82
2022/01/31 03:31:26;;;;;;;7.10;2.23;;;;;;;4.36;59.26;99078.03;5052982;28;20165;-82
2022/01/31 03:33:53;;;;;;;4.97;2.60;;;;;;;4.36;60.01;99083.03;5051922;28;20266;-82
2022/01/31 03:36:19;;;;;;;9.87;2.70;;;;;;;4.32;59.54;99061.06;5068102;28;20469;-82
2022/01/31 03:38:45;;;;;;;7.00;2.47;;;;;;;4.35;60.01;99064.63;5052012;28;20412;-82
2022/01/31 03:41:12;;;;;;;7.50;2.10;;;;;;;2.65;60.75;98795.22;5053928;28;20224;-82
2022/01/31 03:43:39;;;;;;;5.93;2.60;;;;;;;4.29;61.83;99080.91;5053479;28;20166;-83
2022/01/31 03:46:05;;;;;;;9.20;2.40;;;;;;;2.13;61.40;98721.06;5051307;28;20403;-83
2022/01/31 03:48:31;;;;;;;6.17;2.90;;;;;;;4.21;62.42;99107.97;5052204;28;20531;-83
2022/01/31 03:50:57;;;;;;;4.33;2.40;;;;;;;3.50;62.45;98993.25;5052479;28;20606;-84
2022/01/31 03:53:23;;;;;;;7.57;2.60;;;;;;;2.96;62.51;98943.91;5052359;28;20161;-82
2022/01/31 03:55:49;;;;;;;8.43;2.57;;;;;;;3.13;62.37;98974.13;5052322;28;20458;-82
2022/01/31 03:58:14;;;;;;;6.60;3.00;;;;;;;3.63;63.30;99080.84;5052506;28;20172;-82
2022/01/31 04:00:40;;;;;;;5.43;2.30;;;;;;;4.07;63.14;99144.66;5052649;28;20170;-84
2022/01/31 04:03:06;;;;;;;5.23;2.53;;;;;;;4.05;62.31;99140.34;5052511;28;20602;-82
2022/01/31 04:05:31;;;;;;;8.27;2.97;;;;;;;1.63;61.43;98727.72;5052252;28;20399;-82
2022/01/31 04:07:57;;;;;;;4.83;2.23;;;;;;;3.14;61.17;98978.34;5052707;28;20200;-82
2022/01/31 04:10:24;;;;;;;6.70;2.70;;;;;;;2.74;61.45;98905.78;5057093;28;20165;-83
2022/01/31 04:12:49;;;;;;;10.20;2.70;;;;;;;4.09;60.62;99145.63;5054272;28;20462;-82
2022/01/31 04:15:15;;;;;;;6.47;2.67;;;;;;;4.24;59.91;99163.28;5052864;28;20439;-83
2022/01/31 04:17:40;;;;;;;17.87;3.20;;;;;;;4.27;59.78;99162.63;5055206;28;20180;-82
2022/01/31 04:20:08;;;;;;;6.80;2.80;;;;;;;4.22;59.59;99153.94;5054408;28;20677;-82
2022/01/31 04:22:37;;;;;;;7.03;2.27;;;;;;;4.00;59.81;99120.03;5052864;28;20622;-82
2022/01/31 04:25:05;;;;;;;6.70;2.83;;;;;;;4.12;59.77;99157.50;5052027;28;20399;-83
2022/01/31 04:27:43;;;;;;;5.97;2.63;;;;;;;2.74;59.92;98918.25;5050899;28;20443;-82
2022/01/31 04:30:12;;;;;;;5.27;2.70;;;;;;;0.82;59.93;98605.84;5052752;28;20487;-84
2022/01/31 04:32:37;;;;;;;7.77;2.73;;;;;;;3.85;59.87;99121.50;5052198;28;20471;-83
2022/01/31 04:35:03;;;;;;;4.50;2.10;;;;;;;2.90;59.95;98968.50;5052790;28;20447;-83
2022/01/31 04:37:28;;;;;;;7.73;1.90;;;;;;;2.37;60.09;98882.47;5074587;28;20169;-82
2022/01/31 04:39:54;;;;;;;7.17;2.30;;;;;;;3.76;60.82;99120.06;5057211;28;20219;-83
2022/01/31 04:42:19;;;;;;;11.00;2.83;;;;;;;3.89;60.27;99167.66;5054328;28;20161;-81
2022/01/31 04:44:45;;;;;;;6.40;2.50;;;;;;;3.23;59.87;99033.97;5052841;28;20260;-82
2022/01/31 04:47:11;;;;;;;10.37;2.77;;;;;;;2.80;59.94;98961.13;5051661;28;20161;-82
2022/01/31 04:49:36;;;;;;;7.10;2.60;;;;;;;3.53;59.77;99081.00;5051678;28;20224;-82
2022/01/31 04:52:03;;;;;;;11.70;3.90;;;;;;;3.73;58.94;99108.22;5051933;28;20169;-83
2022/01/31 04:54:28;;;;;;;9.30;3.57;;;;;;;4.06;58.71;99163.00;5052220;28;20196;-82
2022/01/31 04:56:54;;;;;;;9.20;2.70;;;;;;;2.69;59.09;98934.56;5052319;28;20858;-82
2022/01/31 04:59:19;;;;;;;5.40;2.10;;;;;;;3.95;58.87;99145.53;5052223;28;20547;-82
2022/01/31 05:01:46;;;;;;;6.83;2.40;;;;;;;2.95;59.54;98997.16;5052364;28;20166;-82
2022/01/31 05:04:12;;;;;;;10.37;5.37;;;;;;;3.30;59.44;99058.59;5056398;28;20164;-82
2022/01/31 05:06:40;;;;;;;7.20;3.70;;;;;;;3.53;58.21;99046.00;5055069;28;20494;-82
2022/01/31 05:09:06;;;;;;;7.90;3.47;;;;;;;2.72;58.18;98892.28;5011313;28;20261;-83
2022/01/31 05:11:32;;;;;;;6.27;3.73;;;;;;;0.34;58.17;98535.25;5011620;28;20886;-84
2022/01/31 05:13:57;;;;;;;10.83;2.53;;;;;;;3.26;60.11;99056.69;5010786;28;21053;-83
2022/01/31 05:16:23;;;;;;;4.77;2.47;;;;;;;2.61;60.28;98968.16;5010147;28;20200;-83
2022/01/31 05:18:48;;;;;;;9.37;4.87;;;;;;;3.96;60.76;99179.81;4995483;28;20266;-82
2022/01/31 05:21:14;;;;;;;4.87;2.77;;;;;;;4.06;59.95;99190.53;5000878;28;20202;-83
2022/01/31 05:23:40;;;;;;;7.33;3.93;;;;;;;4.14;58.98;99176.00;5010865;28;20229;-84
2022/01/31 05:26:05;;;;;;;10.17;4.40;;;;;;;4.10;58.81;99174.94;4993526;28;20713;-82
2022/01/31 05:28:31;;;;;;;12.50;5.23;;;;;;;3.84;58.60;99119.81;5010045;28;20743;-83
2022/01/31 05:30:57;;;;;;;13.77;4.77;;;;;;;4.10;58.26;99157.41;5009772;28;20730;-83
2022/01/31 05:33:22;;;;;;;8.17;2.90;;;;;;;1.90;58.29;98780.19;5009626;28;20418;-82
2022/01/31 05:35:48;;;;;;;4.70;2.10;;;;;;;3.55;58.07;99067.84;5009590;28;20283;-82
2022/01/31 05:38:13;;;;;;;6.70;2.90;;;;;;;2.92;57.41;98961.94;5009595;28;20635;-83
2022/01/31 05:40:39;;;;;;;8.47;3.87;;;;;;;2.73;57.73;98934.00;4993896;28;20202;-82
2022/01/31 05:43:05;;;;;;;13.87;5.60;;;;;;;3.72;56.72;99098.09;5010204;28;20318;-83
2022/01/31 05:45:30;;;;;;;10.10;3.13;;;;;;;3.21;56.56;99016.38;5014340;28;20274;-83
2022/01/31 05:47:56;;;;;;;6.80;3.50;;;;;;;4.34;56.31;99199.84;5050954;28;20291;-83
2022/01/31 05:50:21;;;;;;;9.77;3.67;;;;;;;2.42;56.47;98889.41;5052501;28;20193;-83
2022/01/31 05:52:47;;;;;;;9.47;4.17;;;;;;;1.77;56.27;98766.06;5052987;28;20177;-83
2022/01/31 05:55:13;;;;;;;9.90;4.07;;;;;;;4.20;56.53;99220.63;5055675;28;20191;-83
2022/01/31 05:57:38;;;;;;;5.13;2.90;;;;;;;4.16;56.43;99229.56;5055417;28;20196;-83
2022/01/31 06:00:06;;;;;;;8.43;3.13;;;;;;;1.86;56.85;98844.03;5035032;28;20509;-82
2022/01/31 06:02:32;;;;;;;12.97;4.20;;;;;;;2.11;56.85;98882.38;5054405;28;20181;-82
2022/01/31 06:04:57;;;;;;;17.83;5.47;;;;;;;2.69;56.96;98997.03;5060280;28;20421;-82
2022/01/31 06:07:23;;;;;;;18.97;5.27;;;;;;;2.31;57.61;98976.94;5076016;28;20161;-83
2022/01/31 06:09:48;;;;;;;13.37;4.73;;;;;;;4.16;57.22;99249.59;5089806;28;20170;-83
2022/01/31 06:12:15;;;;;;;13.27;4.80;;;;;;;0.98;56.40;98670.03;5055805;28;20161;-83
2022/01/31 06:14:41;;;;;;;5.80;3.10;;;;;;;2.75;56.06;98989.06;5055516;28;20199;-83
2022/01/31 06:17:07;;;;;;;9.60;4.73;;;;;;;1.67;55.66;98799.50;5055204;28;20504;-83
2022/01/31 06:19:32;;;;;;;7.57;4.20;;;;;;;0.12;55.42;98519.59;5054089;28;20182;-82
2022/01/31 06:21:57;;;;;;;10.13;4.27;;;;;;;2.92;55.04;99011.94;5044822;28;20185;-82
2022/01/31 06:24:23;;;;;;;8.30;3.93;;;;;;;4.58;55.00;99251.53;5046312;28;20184;-82
2022/01/31 06:26:49;;;;;;;11.10;4.20;;;;;;;3.02;54.00;98952.56;5053610;28;20200;-82
2022/01/31 06:29:15;;;;;;;20.80;3.93;;;;;;;3.77;53.80;99087.63;5054801;28;20227;-83
2022/01/31 06:31:40;;;;;;;8.13;3.63;;;;;;;2.57;52.99;98846.31;5054797;28;20186;-83
2022/01/31 06:34:06;;;;;;;5.80;3.33;;;;;;;4.62;52.47;99180.75;5054778;28;20197;-83
2022/01/31 06:36:31;;;;;;;6.70;3.33;;;;;;;4.91;51.92;99192.63;5054885;28;20191;-82
2022/01/31 06:38:57;;;;;;;10.07;4.50;;;;;;;4.96;52.20;99201.28;5055505;28;20164;-82
2022/01/31 06:41:23;;;;;;;7.63;4.40;;;;;;;4.76;52.25;99148.25;5054668;28;20169;-82
2022/01/31 06:43:50;;;;;;;6.60;3.10;;;;;;;2.54;51.51;98771.19;5069754;28;20562;-82
2022/01/31 06:46:16;;;;;;;7.20;2.80;;;;;;;5.09;51.13;99202.13;5070083;28;20422;-82
2022/01/31 06:48:42;;;;;;;7.87;2.83;;;;;;;4.38;51.49;99062.31;5070379;28;20467;-84
2022/01/31 06:51:07;;;;;;;15.03;4.57;;;;;;;5.26;51.68;99214.06;5055201;28;20203;-82
2022/01/31 06:53:34;;;;;;;10.80;3.97;;;;;;;5.41;51.37;99219.16;5060361;28;20202;-84
2022/01/31 06:56:00;;;;;;;9.37;3.27;;;;;;;4.93;50.90;99153.44;5094724;28;20153;-83
2022/01/31 06:58:25;;;;;;;12.87;4.33;;;;;;;3.18;50.49;98845.25;5082340;28;20442;-83
2022/01/31 07:00:51;;;;;;;8.90;3.33;;;;;;;5.11;50.74;99180.50;5073163;28;20993;-82
2022/01/31 07:03:17;;;;;;;8.57;4.13;;;;;;;3.25;50.17;98832.34;5056823;28;20219;-82
2022/01/31 07:05:44;;;;;;;6.97;3.90;;;;;;;3.09;49.68;98820.53;5057972;28;20411;-83
2022/01/31 07:08:10;;;;;;;12.87;3.97;;;;;;;5.36;49.82;99211.34;5069540;28;20201;-83
2022/01/31 07:10:37;;;;;;;8.53;4.30;;;;;;;5.60;50.43;99216.13;5054746;28;20922;-84
2022/01/31 07:13:11;;;;;;;14.37;6.23;;;;;;;2.62;50.62;98736.69;5069639;28;20424;-85
2022/01/31 07:15:37;;;;;;;10.07;5.17;;;;;;;5.66;50.67;99239.94;5048992;28;20462;-85
2022/01/31 07:18:03;;;;;;;47.47;19.07;;;;;;;3.84;50.29;98839.41;5067708;28;21059;-84
2022/01/31 07:20:38;;;;;;;20.80;8.20;;;;;;;6.00;49.88;99207.66;5053762;28;20561;-82
2022/01/31 07:23:09;;;;;;;14.27;5.97;;;;;;;3.63;49.61;98793.03;5055077;28;20157;-84
2022/01/31 07:25:35;;;;;;;11.53;4.90;;;;;;;6.03;50.17;99204.47;5076108;28;20450;-83
2022/01/31 07:28:12;;;;;;;7.83;3.10;;;;;;;6.12;49.44;99197.47;5058990;28;20451;-83
2022/01/31 07:30:39;;;;;;;10.13;4.43;;;;;;;5.68;50.02;99122.03;5053989;28;20835;-84
2022/01/31 07:33:09;;;;;;;11.17;4.33;;;;;;;4.41;48.97;98894.63;5053782;28;20434;-82
2022/01/31 07:35:34;;;;;;;15.57;5.97;;;;;;;3.42;48.96;98711.69;5034335;28;20453;-83
2022/01/31 07:38:00;;;;;;;25.17;8.73;;;;;;;2.94;49.46;98622.97;5050435;28;20477;-82
2022/01/31 07:40:26;;;;;;;33.93;10.53;;;;;;;6.65;48.30;99186.25;5052704;28;20603;-83
2022/01/31 07:42:51;;;;;;;16.20;6.37;;;;;;;5.91;48.78;99053.88;5053468;28;20169;-83
2022/01/31 07:45:16;;;;;;;23.93;10.10;;;;;;;6.23;47.09;99044.00;5053022;28;20157;-83
2022/01/31 07:47:42;;;;;;;29.93;10.80;;;;;;;6.45;46.71;99107.22;5052587;28;20220;-84
2022/01/31 07:50:08;;;;;;;18.83;7.07;;;;;;;6.58;45.58;99150.63;5052805;28;20176;-83
2022/01/31 07:52:34;;;;;;;11.63;4.23;;;;;;;6.65;46.56;99197.97;5055624;28;20185;-83
2022/01/31 07:54:59;;;;;;;9.57;3.30;;;;;;;6.58;46.09;99193.38;5086039;28;20680;-83
2022/01/31 07:57:25;;;;;;;13.73;6.83;;;;;;;4.36;45.83;98784.88;5063681;28;20169;-83
2022/01/31 07:59:52;;;;;;;17.10;6.03;;;;;;;3.52;45.13;98653.94;5042708;28;20232;-84
2022/01/31 08:02:17;;;;;;;13.50;6.17;;;;;;;6.37;44.38;99107.59;5068062;28;20197;-84
2022/01/31 08:04:43;;;;;;;15.27;5.07;;;;;;;6.81;44.31;99118.38;5068813;28;20502;-84
2022/01/31 08:07:08;;;;;;;7.10;2.73;;;;;;;7.07;43.83;99188.59;5066139;28;20161;-84
2022/01/31 08:09:34;;;;;;;10.70;5.17;;;;;;;5.57;43.83;98910.50;5077081;28;20153;-84
2022/01/31 08:11:59;;;;;;;14.73;5.73;;;;;;;3.92;43.85;98602.03;5070953;28;20223;-83
2022/01/31 08:14:25;;;;;;;15.23;7.20;;;;;;;7.72;43.17;99207.16;5052725;28;20642;-84
2022/01/31 08:16:53;;;;;;;21.63;7.37;;;;;;;6.69;42.17;99038.91;5054117;28;20165;-84
2022/01/31 08:19:19;;;;;;;26.83;10.17;;;;;;;7.09;42.22;99035.13;5052683;28;20172;-84
2022/01/31 08:21:44;;;;;;;26.67;9.90;;;;;;;6.10;42.07;98855.63;5050243;28;20432;-84
2022/01/31 08:24:10;;;;;;;18.23;8.27;;;;;;;6.10;41.90;98840.56;5046024;28;20169;-84
2022/01/31 08:26:35;;;;;;;26.93;11.70;;;;;;;6.49;42.05;98907.97;5049798;28;20607;-83
2022/01/31 08:29:08;;;;;;;25.90;9.57;;;;;;;6.00;41.28;98827.44;5066509;28;20161;-84
2022/01/31 08:31:38;;;;;;;19.63;8.27;;;;;;;5.82;40.97;98817.28;5067808;28;20176;-83
2022/01/31 08:34:18;;;;;;;29.17;9.00;;;;;;;6.58;40.84;98910.09;5036930;28;20444;-83
2022/01/31 08:36:44;;;;;;;29.50;10.20;;;;;;;5.56;40.18;98753.13;5038886;28;20431;-83
2022/01/31 08:39:15;;;;;;;25.90;9.83;;;;;;;7.57;40.49;99075.38;5050837;28;20799;-83
2022/01/31 08:41:43;;;;;;;17.60;8.67;;;;;;;6.15;40.46;98814.03;5046045;28;20170;-85
2022/01/31 08:44:13;;;;;;;26.10;10.27;;;;;;;7.05;39.94;98982.94;5031131;28;20408;-84
2022/01/31 08:46:39;;;;;;;23.30;9.17;;;;;;;5.69;40.60;98739.56;5051775;28;20943;-85
2022/01/31 08:49:06;;;;;;;23.37;10.30;;;;;;;8.12;39.58;99134.41;5047217;28;20459;-83
2022/01/31 08:51:31;;;;;;;32.47;12.73;;;;;;;6.61;39.47;98833.94;5045147;28;20571;-84
2022/01/31 08:53:57;;;;;;;24.83;9.70;;;;;;;7.76;39.14;99063.69;5060912;28;20196;-83
2022/01/31 08:56:23;;;;;;;20.43;9.87;;;;;;;8.23;38.38;99109.72;5072084;28;20244;-84
2022/01/31 08:58:49;;;;;;;21.00;8.97;;;;;;;8.72;38.56;99170.94;5046271;28;20282;-83
2022/01/31 09:01:22;;;;;;;23.23;10.00;;;;;;;7.19;38.44;98885.47;5051213;28;20622;-86
2022/01/31 09:06:23;;;;;;;26.77;12.30;;;;;;;8.63;38.05;99060.34;5052440;28;20206;-83
2022/01/31 09:08:49;;;;;;;11.40;5.87;;;;;;;8.78;37.48;99013.13;5052283;28;20164;-83
2022/01/31 09:11:15;;;;;;;19.37;7.63;;;;;;;8.62;37.55;99035.94;5051852;28;20173;-83
2022/01/31 09:13:41;;;;;;;10.30;4.03;;;;;;;7.60;37.57;98918.50;5053180;28;20158;-83
2022/01/31 09:16:07;;;;;;;12.60;5.73;;;;;;;8.71;37.65;99093.50;5067917;28;20162;-82
2022/01/31 09:18:33;;;;;;;14.10;6.43;;;;;;;8.89;37.28;99125.50;5052115;28;20168;-82
2022/01/31 09:21:00;;;;;;;16.00;6.93;;;;;;;8.15;37.85;99070.66;5050832;28;20625;-82
2022/01/31 09:23:26;;;;;;;14.63;4.37;;;;;;;8.87;38.06;99164.94;5051409;28;20164;-82
2022/01/31 09:25:52;;;;;;;19.23;8.03;;;;;;;7.56;37.65;98883.88;5052670;28;20166;-83
2022/01/31 09:28:18;;;;;;;12.53;3.33;;;;;;;7.48;37.10;98926.34;5047698;28;20197;-83
2022/01/31 09:30:45;;;;;;;15.27;7.60;;;;;;;9.26;36.58;99096.84;5055768;28;20219;-83
2022/01/31 09:33:11;;;;;;;6.00;2.67;;;;;;;7.42;36.90;98865.59;5055618;28;20188;-84
2022/01/31 09:35:36;;;;;;;8.20;4.20;;;;;;;7.51;36.81;98903.81;5077873;28;20224;-83
2022/01/31 09:38:03;;;;;;;20.00;9.67;;;;;;;9.13;36.94;99124.88;5064305;28;20205;-82
2022/01/31 09:40:28;;;;;;;21.57;11.37;;;;;;;9.22;36.09;99052.06;5056145;28;20229;-83
2022/01/31 09:48:32;;;;;;;13.03;6.57;;;;;;;7.12;36.77;98743.34;5034145;28;20713;-83
2022/01/31 09:51:19;;;;;;;8.23;2.40;;;;;;;8.60;37.58;99071.97;5033820;28;20186;-82
2022/01/31 09:54:11;;;;;;;4.93;2.53;;;;;;;8.91;37.20;99065.00;5034488;28;20186;-83
2022/01/31 09:56:40;;;;;;;11.20;3.30;;;;;;;8.02;37.03;98872.59;4974980;28;20192;-83
2022/01/31 09:59:09;;;;;;;9.80;4.73;;;;;;;8.53;36.90;98957.31;4961026;28;20279;-82
2022/01/31 10:01:52;;;;;;;8.73;3.10;;;;;;;7.54;36.20;98767.13;4973954;28;20227;-83
2022/01/31 10:04:22;;;;;;;14.63;7.47;;;;;;;9.12;35.29;98921.16;4966426;28;20669;-84
2022/01/31 10:06:58;;;;;;;20.50;7.47;;;;;;;9.95;35.08;99036.63;4974952;28;20187;-83
2022/01/31 10:09:27;;;;;;;22.37;11.20;;;;;;;10.58;34.01;99037.41;4973386;28;20755;-81
2022/01/31 10:12:23;;;;;;;6.43;3.13;;;;;;;10.26;34.45;99050.50;4974638;28;20203;-83
2022/01/31 10:17:40;;;;;;;10.77;4.47;;;;;;;9.06;34.23;98891.47;4971468;28;20244;-84
2022/01/31 10:20:30;;;;;;;18.67;8.40;;;;;;;10.76;33.18;99033.03;4973584;28;20582;-83
2022/01/31 10:23:05;;;;;;;10.60;5.33;;;;;;;10.90;33.06;98996.44;4978318;28;20581;-83
2022/01/31 10:25:32;;;;;;;9.53;3.80;;;;;;;10.07;33.35;98933.44;4979037;28;20183;-84
2022/01/31 10:27:57;;;;;;;3.57;2.23;;;;;;;9.37;33.25;98885.97;5003369;28;20242;-82
2022/01/31 10:30:27;;;;;;;19.53;9.40;;;;;;;10.71;33.58;99026.97;5017086;28;20195;-84
2022/01/31 10:32:55;;;;;;;10.03;3.83;;;;;;;10.51;33.21;99035.47;5023911;28;20205;-83
2022/01/31 10:35:41;;;;;;;7.23;3.13;;;;;;;10.75;32.59;99023.72;5034413;28;20640;-84
2022/01/31 10:38:11;;;;;;;7.17;3.10;;;;;;;9.90;33.12;98972.38;5035127;28;20245;-85
2022/01/31 10:44:07;;;;;;;26.37;12.33;;;;;;;11.30;32.25;98992.72;5056352;28;20184;-84
2022/01/31 10:56:55;;;;;;;15.53;7.13;;;;;;;9.42;33.04;98695.91;5054391;28;20166;-86
2022/01/31 10:59:27;;;;;;;10.93;5.53;;;;;;;10.68;33.07;98946.66;5058588;28;20364;-84
2022/01/31 11:01:56;;;;;;;18.57;8.43;;;;;;;10.48;33.27;98936.66;5055548;28;20174;-85
2022/01/31 11:04:22;;;;;;;11.10;5.00;;;;;;;10.43;33.81;98930.56;5070664;28;20169;-84
2022/01/31 11:06:50;;;;;;;19.57;8.73;;;;;;;9.80;33.65;98817.75;5056061;28;20554;-85
2022/01/31 11:09:19;;;;;;;20.27;9.03;;;;;;;10.79;32.73;98916.69;5056085;28;20244;-84
2022/01/31 11:11:47;;;;;;;34.57;14.70;;;;;;;10.67;32.30;98863.09;5070058;28;20173;-84
2022/01/31 11:14:14;;;;;;;78.17;35.77;;;;;;;11.57;31.75;98893.13;5052330;28;20290;-84
2022/01/31 11:16:42;;;;;;;32.90;11.77;;;;;;;9.94;30.73;98632.88;5053662;28;20185;-84
2022/01/31 11:19:10;;;;;;;25.23;12.00;;;;;;;11.09;30.77;98851.88;5054544;28;20158;-84
2022/01/31 11:21:43;;;;;;;12.57;5.23;;;;;;;9.09;31.09;98534.75;5053881;28;20177;-86
2022/01/31 11:24:18;;;;;;;35.30;17.87;;;;;;;11.20;31.19;98751.75;5055236;28;20152;-83
2022/01/31 11:26:48;;;;;;;8.03;3.30;;;;;;;10.79;29.88;98805.28;5054782;28;20180;-85
2022/01/31 11:29:14;;;;;;;13.70;6.47;;;;;;;10.66;30.83;98803.16;5054155;28;20215;-85
2022/01/31 11:31:40;;;;;;;14.10;6.87;;;;;;;10.51;31.14;98750.38;5053797;28;20204;-84
2022/01/31 11:34:07;;;;;;;22.93;9.27;;;;;;;9.72;31.42;98643.09;5054679;28;20193;-84
2022/01/31 11:36:35;;;;;;;15.00;5.57;;;;;;;10.41;30.69;98846.16;5053956;28;20165;-84
2022/01/31 11:39:05;;;;;;;16.60;7.90;;;;;;;10.60;30.55;98831.63;5053832;28;20180;-84
2022/01/31 11:41:32;;;;;;;30.57;10.97;;;;;;;10.55;30.05;98728.53;5054280;28;20173;-82
2022/01/31 11:44:05;;;;;;;17.70;7.47;;;;;;;11.46;30.15;98856.44;5054257;28;20162;-84
2022/01/31 11:46:33;;;;;;;21.87;8.73;;;;;;;9.59;29.87;98575.22;5052569;28;20185;-84
2022/01/31 11:48:58;;;;;;;11.67;5.07;;;;;;;10.33;30.39;98781.78;5068167;28;20228;-83
2022/01/31 11:51:24;;;;;;;8.07;3.53;;;;;;;10.41;30.69;98843.63;5052031;28;20215;-83
2022/01/31 11:53:49;;;;;;;6.23;3.50;;;;;;;9.28;30.81;98643.19;5060898;28;20636;-85
2022/01/31 11:56:20;;;;;;;9.30;4.30;;;;;;;10.73;30.65;98827.88;5064802;28;20177;-85
2022/01/31 11:58:54;;;;;;;10.83;4.63;;;;;;;10.54;30.60;98817.94;5056187;28;20181;-84